createdAt,value
2022-10-08T00:03:02.852Z,31.45
2022-10-08T00:07:25.619Z,29.20
2022-10-08T00:11:47.928Z,25.45
2022-10-08T00:16:17.026Z,26.85
2022-10-08T00:20:39.483Z,30.90
2022-10-08T00:25:01.823Z,29.98
2022-10-08T00:29:24.343Z,25.98
2022-10-08T00:33:50.364Z,29.55
2022-10-08T00:38:12.955Z,30.25
2022-10-08T00:42:35.363Z,25.70
2022-10-08T00:46:57.967Z,23.92
2022-10-08T00:51:20.823Z,26.13
2022-10-08T00:55:44.142Z,28.67
2022-10-08T01:00:15.724Z,25.27
2022-10-08T01:04:40.003Z,31.02
2022-10-08T01:09:22.104Z,24.85
2022-10-08T01:13:52.383Z,31.15
2022-10-08T01:18:43.363Z,23.20
2022-10-08T01:23:48.765Z,24.05
2022-10-08T01:28:50.226Z,26.63
2022-10-08T01:33:40.104Z,21.27
2022-10-08T01:38:07.377Z,23.27
2022-10-08T01:42:32.603Z,23.80
2022-10-08T01:46:59.205Z,21.77
2022-10-08T01:51:41.147Z,21.23
2022-10-08T01:56:06.825Z,22.35
2022-10-08T02:00:29.653Z,20.88
2022-10-08T02:04:55.504Z,19.95
2022-10-08T02:09:18.363Z,21.30
2022-10-08T02:13:41.483Z,22.88
2022-10-08T02:18:10.765Z,26.58
2022-10-08T02:22:45.252Z,22.92
2022-10-08T02:27:11.663Z,17.23
2022-10-08T02:31:52.561Z,19.70
2022-10-08T02:36:22.087Z,19.48
2022-10-08T02:40:50.007Z,21.08
2022-10-08T02:45:31.160Z,23.20
2022-10-08T02:50:03.184Z,23.55
2022-10-08T02:54:25.206Z,20.70
2022-10-08T02:58:48.443Z,25.02
2022-10-08T03:03:26.324Z,22.05
2022-10-08T03:07:52.246Z,21.33
2022-10-08T03:12:14.452Z,23.67
2022-10-08T03:16:48.295Z,21.27
2022-10-08T03:21:14.711Z,24.30
2022-10-08T03:25:37.085Z,29.98
2022-10-08T03:29:59.385Z,26.55
2022-10-08T03:34:21.862Z,22.00
2022-10-08T03:38:44.265Z,27.88
2022-10-08T03:43:06.435Z,21.23
2022-10-08T03:47:28.903Z,20.73
2022-10-08T03:51:51.063Z,22.50
2022-10-08T03:56:20.356Z,22.23
2022-10-08T04:00:43.183Z,26.02
2022-10-08T04:05:06.424Z,24.15
2022-10-08T04:09:28.685Z,24.70
2022-10-08T04:13:50.724Z,27.70
2022-10-08T04:18:14.158Z,26.25
2022-10-08T04:22:36.703Z,26.77
2022-10-08T04:26:59.043Z,20.30
2022-10-08T04:31:23.654Z,24.48
2022-10-08T04:35:46.063Z,24.80
2022-10-08T04:40:09.723Z,23.90
2022-10-08T04:44:31.823Z,22.17
2022-10-08T04:48:56.635Z,29.75
2022-10-08T04:53:19.005Z,27.50
2022-10-08T04:57:41.412Z,26.88
2022-10-08T05:02:03.916Z,26.08
2022-10-08T05:06:29.864Z,26.05
2022-10-08T05:10:52.304Z,27.02
2022-10-08T05:15:14.903Z,28.88
2022-10-08T05:19:37.151Z,25.77
2022-10-08T05:24:07.183Z,29.60
2022-10-08T05:28:30.077Z,28.08
2022-10-08T05:32:52.484Z,34.05
2022-10-08T05:37:14.896Z,29.15
2022-10-08T05:41:38.567Z,30.85
2022-10-08T05:46:00.846Z,27.48
2022-10-08T05:50:23.343Z,29.48
2022-10-08T05:54:45.624Z,27.80
2022-10-08T05:59:10.606Z,25.17
2022-10-08T06:03:33.143Z,29.85
2022-10-08T06:07:58.023Z,28.15
2022-10-08T06:12:20.663Z,28.73
2022-10-08T06:16:43.123Z,25.45
2022-10-08T06:21:12.620Z,28.20
2022-10-08T06:25:37.843Z,28.63
2022-10-08T06:30:00.161Z,25.52
2022-10-08T06:34:22.584Z,23.92
2022-10-08T06:38:59.697Z,24.55
2022-10-08T06:43:22.147Z,26.88
2022-10-08T06:47:44.664Z,28.52
2022-10-08T06:52:06.943Z,25.38
2022-10-08T06:56:29.644Z,22.15
2022-10-08T07:01:06.050Z,20.17
2022-10-08T07:05:28.525Z,22.33
2022-10-08T07:09:50.883Z,19.83
2022-10-08T07:14:13.484Z,21.23
2022-10-08T07:18:37.427Z,23.45
2022-10-08T07:22:59.908Z,20.65
2022-10-08T07:27:22.284Z,16.90
2022-10-08T07:31:44.851Z,17.25
2022-10-08T07:36:16.091Z,15.93
2022-10-08T07:40:39.163Z,14.93
2022-10-08T07:45:01.545Z,17.13
2022-10-08T07:49:24.230Z,13.27
2022-10-08T07:53:47.063Z,19.15
2022-10-08T07:58:09.567Z,13.38
2022-10-08T08:02:32.150Z,13.35
2022-10-08T08:06:54.743Z,14.23
2022-10-08T08:11:20.543Z,16.30
2022-10-08T08:15:46.336Z,15.23
2022-10-08T08:20:17.869Z,15.27
2022-10-08T08:24:40.623Z,12.38
2022-10-08T08:29:07.456Z,14.13
2022-10-08T08:51:21.893Z,14.48
2022-10-08T08:55:47.474Z,15.77
2022-10-08T09:00:24.584Z,17.05
2022-10-08T09:05:01.078Z,16.25
2022-10-08T09:09:49.713Z,16.10
2022-10-08T09:14:17.846Z,14.07
2022-10-08T09:18:49.943Z,14.98
2022-10-08T09:23:22.923Z,12.77
2022-10-08T09:27:55.663Z,15.52
2022-10-08T09:32:22.612Z,11.45
2022-10-08T09:37:06.463Z,12.40
2022-10-08T09:41:30.546Z,13.23
2022-10-08T09:45:54.887Z,13.13
2022-10-08T09:50:19.921Z,13.85
2022-10-08T09:54:49.262Z,11.43
2022-10-08T09:59:25.791Z,12.15
2022-10-08T10:03:57.899Z,14.77
2022-10-08T10:08:52.806Z,10.90
2022-10-08T10:13:38.160Z,12.45
2022-10-08T10:18:11.784Z,11.77
2022-10-08T10:23:02.084Z,12.43
2022-10-08T10:27:38.963Z,15.10
2022-10-08T10:32:14.394Z,13.52
2022-10-08T10:36:46.004Z,11.68
2022-10-08T10:41:18.893Z,10.38
2022-10-08T10:45:46.819Z,11.98
2022-10-08T10:50:23.104Z,12.30
2022-10-08T10:55:26.584Z,10.93
2022-10-08T11:00:00.596Z,12.82
2022-10-08T11:04:59.391Z,11.35
2022-10-08T11:09:55.136Z,7.82
2022-10-08T11:14:39.104Z,9.63
2022-10-08T11:19:10.843Z,5.55
2022-10-08T11:23:44.083Z,11.10
2022-10-08T11:28:32.546Z,11.35
2022-10-08T11:32:57.244Z,5.32
2022-10-08T11:37:22.179Z,5.50
2022-10-08T11:41:59.903Z,6.10
2022-10-08T11:46:31.778Z,7.43
2022-10-08T11:50:54.344Z,6.10
2022-10-08T11:55:26.824Z,6.50
2022-10-08T12:00:08.558Z,8.65
2022-10-08T12:04:38.585Z,6.80
2022-10-08T12:09:07.615Z,7.28
2022-10-08T12:13:30.844Z,6.47
2022-10-08T12:18:00.083Z,7.38
2022-10-08T12:22:25.519Z,6.72
2022-10-08T12:27:18.786Z,6.10
2022-10-08T12:31:44.218Z,6.07
2022-10-08T12:36:26.603Z,11.50
2022-10-08T12:41:09.816Z,7.40
2022-10-08T12:45:47.985Z,7.68
2022-10-08T12:50:33.936Z,6.47
2022-10-08T12:54:58.923Z,6.97
2022-10-08T12:59:26.304Z,7.18
2022-10-08T13:04:07.385Z,6.82
2022-10-08T13:08:35.853Z,7.10
2022-10-08T13:13:07.224Z,8.32
2022-10-08T13:17:33.824Z,4.80
2022-10-08T13:22:02.901Z,8.57
2022-10-08T13:26:50.264Z,8.52
2022-10-08T13:31:24.182Z,8.30
2022-10-08T13:36:19.968Z,5.18
2022-10-08T13:40:51.571Z,10.93
2022-10-08T13:45:39.463Z,15.05
2022-10-08T13:50:02.417Z,9.80
2022-10-08T13:54:29.203Z,9.65
2022-10-08T13:58:51.824Z,11.80
2022-10-08T14:03:14.783Z,9.57
2022-10-08T14:07:42.545Z,5.95
2022-10-08T14:12:05.706Z,11.00
2022-10-08T14:16:28.361Z,6.65
2022-10-08T14:20:51.945Z,7.38
2022-10-08T14:25:22.424Z,8.00
2022-10-08T14:29:44.746Z,8.55
2022-10-08T14:34:07.823Z,8.15
2022-10-08T14:38:33.036Z,8.63
2022-10-08T14:42:55.644Z,9.82
2022-10-08T14:47:18.021Z,7.53
2022-10-08T14:51:40.783Z,6.03
2022-10-08T14:56:13.861Z,9.25
2022-10-08T15:00:36.729Z,10.23
2022-10-08T15:04:59.061Z,8.45
2022-10-08T15:09:22.624Z,12.82
2022-10-08T15:13:44.825Z,9.52
2022-10-08T15:18:08.240Z,11.00
2022-10-08T15:22:33.072Z,8.45
2022-10-08T15:26:56.328Z,10.55
2022-10-08T15:31:22.141Z,11.80
2022-10-08T15:35:44.975Z,11.10
2022-10-08T15:40:08.223Z,9.40
2022-10-08T15:44:32.543Z,11.50
2022-10-08T15:48:57.503Z,10.82
2022-10-08T15:53:23.381Z,9.93
2022-10-08T15:57:46.335Z,8.43
2022-10-08T16:02:15.541Z,10.20
2022-10-08T16:06:39.816Z,11.02
2022-10-08T16:11:19.471Z,10.50
2022-10-08T16:15:42.224Z,10.35
2022-10-08T16:20:05.385Z,11.82
2022-10-08T16:24:28.083Z,9.63
2022-10-08T16:28:55.483Z,11.07
2022-10-08T16:33:18.164Z,13.68
2022-10-08T16:37:40.624Z,18.52
2022-10-08T16:42:06.223Z,17.73
2022-10-08T16:46:36.863Z,19.98
2022-10-08T16:51:03.498Z,15.68
2022-10-08T16:55:26.101Z,19.70
2022-10-08T16:59:50.421Z,18.95
2022-10-08T17:04:14.807Z,23.30
2022-10-08T17:08:37.383Z,17.50
2022-10-08T17:12:59.903Z,17.20
2022-10-08T17:17:22.476Z,18.48
2022-10-08T17:21:45.244Z,15.10
2022-10-08T17:26:28.125Z,15.73
2022-10-08T17:30:50.500Z,18.95
2022-10-08T17:35:13.183Z,15.82
2022-10-08T17:39:35.946Z,16.73
2022-10-08T17:44:02.191Z,16.08
2022-10-08T17:48:25.082Z,20.75
2022-10-08T17:52:47.854Z,18.63
2022-10-08T17:57:10.523Z,25.35
2022-10-08T18:01:37.792Z,21.65
2022-10-08T18:06:02.617Z,28.95
2022-10-08T18:10:25.643Z,20.75
2022-10-08T18:14:49.624Z,24.20
2022-10-08T18:19:12.926Z,22.67
2022-10-08T18:23:36.926Z,23.23
2022-10-08T18:27:59.132Z,27.48
2022-10-08T18:32:21.575Z,23.45
2022-10-08T18:36:44.877Z,29.80
2022-10-08T18:41:24.243Z,25.85
2022-10-08T18:45:46.949Z,29.30
2022-10-08T18:50:09.638Z,25.05
2022-10-08T18:54:31.843Z,70.55
2022-10-08T18:58:56.924Z,31.80
2022-10-08T19:03:19.560Z,22.25
2022-10-08T19:07:41.984Z,23.90
2022-10-08T19:12:06.285Z,19.35
2022-10-08T19:16:29.666Z,20.15
2022-10-08T19:20:52.218Z,22.35
2022-10-08T19:25:14.931Z,24.27
2022-10-08T19:29:39.003Z,38.95
2022-10-08T19:34:07.473Z,25.15
2022-10-08T19:38:30.523Z,24.13
2022-10-08T19:42:52.930Z,24.58
2022-10-08T19:47:15.145Z,18.30
2022-10-08T19:51:39.243Z,16.75
2022-10-08T19:56:08.904Z,17.85
2022-10-08T20:00:31.523Z,20.83
2022-10-08T20:04:57.245Z,19.88
2022-10-08T20:09:23.564Z,19.40
2022-10-08T20:13:48.266Z,15.90
2022-10-08T20:18:11.316Z,18.30
2022-10-08T20:22:33.716Z,22.40
2022-10-08T20:26:56.387Z,18.80
2022-10-08T20:31:26.243Z,18.58
2022-10-08T20:35:48.898Z,17.33
2022-10-08T20:40:12.696Z,22.63
2022-10-08T20:44:35.244Z,19.90
2022-10-08T20:48:58.495Z,22.13
2022-10-08T20:53:21.123Z,25.35
2022-10-08T20:57:43.543Z,17.77
2022-10-08T21:02:06.864Z,19.33
2022-10-08T21:06:39.505Z,19.10
2022-10-08T21:11:04.535Z,21.45
2022-10-08T21:15:27.221Z,22.65
2022-10-08T21:19:49.618Z,19.85
2022-10-08T21:24:12.428Z,20.20
2022-10-08T21:28:35.943Z,21.38
2022-10-08T21:32:58.765Z,23.70
2022-10-08T21:37:21.426Z,29.85
2022-10-08T21:41:44.692Z,28.45
2022-10-08T21:46:08.925Z,26.35
2022-10-08T21:50:35.261Z,27.33
2022-10-08T21:54:58.285Z,27.45
2022-10-08T21:59:20.736Z,32.50
2022-10-08T22:03:43.148Z,29.05
2022-10-08T22:08:05.544Z,29.10
2022-10-08T22:12:28.223Z,30.42
2022-10-08T22:16:50.984Z,31.63
2022-10-08T22:21:20.942Z,31.27
2022-10-08T22:25:51.724Z,33.75
2022-10-08T22:30:14.346Z,33.85
2022-10-08T22:34:36.545Z,33.63
2022-10-08T22:38:59.683Z,34.63
2022-10-08T22:43:22.195Z,38.30
2022-10-08T22:47:46.703Z,37.17
2022-10-08T22:52:09.126Z,41.63
2022-10-08T22:56:32.323Z,39.08
2022-10-08T23:01:08.224Z,45.50
2022-10-08T23:05:30.163Z,41.28
2022-10-08T23:09:52.348Z,37.70
2022-10-08T23:14:14.784Z,38.33
2022-10-08T23:18:40.564Z,39.45
2022-10-08T23:23:03.064Z,35.08
2022-10-08T23:27:25.724Z,38.22
2022-10-08T23:31:48.375Z,32.72
2022-10-08T23:36:15.324Z,37.30
2022-10-08T23:40:37.764Z,36.05
2022-10-08T23:44:59.904Z,29.77
2022-10-08T23:49:22.384Z,34.97
2022-10-08T23:53:46.386Z,30.20
2022-10-08T23:58:08.524Z,31.98
